createdAt,value
2016-05-02T00:00:08.756Z,83
2016-05-02T00:00:18.616Z,83
2016-05-02T00:00:28.727Z,83.2
2016-05-02T00:00:38.618Z,83.3
2016-05-02T00:00:48.633Z,83.1
2016-05-02T00:00:58.633Z,82.9
2016-05-02T00:01:08.790Z,83.1
2016-05-02T00:01:18.790Z,83.1
2016-05-02T00:01:28.777Z,83.1
2016-05-02T00:01:38.777Z,83
2016-05-02T00:01:48.793Z,83.1
2016-05-02T00:01:58.793Z,83.2
2016-05-02T00:02:08.793Z,83.4
2016-05-02T00:02:18.808Z,83.8
2016-05-02T00:02:28.796Z,83.9
2016-05-02T00:02:38.796Z,84.1
2016-05-02T00:02:48.811Z,83.7
2016-05-02T00:02:58.796Z,83.6
2016-05-02T00:03:08.843Z,83.6
2016-05-02T00:03:18.655Z,83.9
2016-05-02T00:03:28.658Z,83.6
2016-05-02T00:03:38.658Z,83.7
2016-05-02T00:03:48.814Z,83.8
2016-05-02T00:03:58.814Z,83.5
2016-05-02T00:04:08.830Z,83.5
2016-05-02T00:04:18.814Z,83.8
2016-05-02T00:04:28.832Z,83.5
2016-05-02T00:04:38.816Z,83.6
2016-05-02T00:04:48.816Z,83.6
2016-05-02T00:04:58.832Z,83.5
2016-05-02T00:05:08.832Z,83.7
2016-05-02T00:05:18.832Z,83.7
2016-05-02T00:05:28.866Z,83.6
2016-05-02T00:05:38.835Z,83.4
2016-05-02T00:05:49.241Z,83.4
2016-05-02T00:05:59.163Z,83.8
2016-05-02T00:06:09.929Z,83.8
2016-05-02T00:06:20.213Z,83.8
2016-05-02T00:06:28.713Z,83.7
2016-05-02T00:06:38.697Z,83.7
2016-05-02T00:06:48.854Z,83.7
2016-05-02T00:06:58.713Z,83.6
2016-05-02T00:07:08.838Z,83.7
2016-05-02T00:07:18.854Z,83.8
2016-05-02T00:07:28.856Z,83.5
2016-05-02T00:07:38.856Z,83.7
2016-05-02T00:07:48.715Z,83.5
2016-05-02T00:07:58.871Z,83.4
2016-05-02T00:08:08.871Z,83.4
2016-05-02T00:08:18.871Z,83.8
2016-05-02T00:08:28.734Z,83.6
2016-05-02T00:08:38.874Z,83.8
2016-05-02T00:08:48.718Z,83.5
2016-05-02T00:08:58.734Z,83.9
2016-05-02T00:09:08.718Z,83.6
2016-05-02T00:09:18.890Z,83.6
2016-05-02T00:09:28.737Z,83.5
2016-05-02T00:09:38.893Z,83.5
2016-05-02T00:09:48.893Z,83.6
2016-05-02T00:09:58.893Z,83.6
2016-05-02T00:10:08.908Z,83.4
2016-05-02T00:10:18.893Z,83.8
2016-05-02T00:10:28.895Z,83.7
2016-05-02T00:10:38.754Z,83.8
2016-05-02T00:10:48.957Z,83.7
2016-05-02T00:10:58.910Z,83.8
2016-05-02T00:11:08.910Z,84.2
2016-05-02T00:11:18.895Z,83.6
2016-05-02T00:11:28.898Z,83.6
2016-05-02T00:11:38.757Z,83.9
2016-05-02T00:11:48.913Z,84
2016-05-02T00:11:58.913Z,83.8
2016-05-02T00:12:08.913Z,83.9
2016-05-02T00:12:18.788Z,83.8
2016-05-02T00:12:28.760Z,83.9
2016-05-02T00:12:38.916Z,83.7
2016-05-02T00:12:48.916Z,83.7
2016-05-02T00:12:58.916Z,83.9
2016-05-02T00:13:08.916Z,83.9
2016-05-02T00:13:18.916Z,83.9
2016-05-02T00:13:28.918Z,84.1
2016-05-02T00:13:38.934Z,83.9
2016-05-02T00:13:48.934Z,84
2016-05-02T00:13:58.778Z,83.8
2016-05-02T00:14:08.934Z,83.9
2016-05-02T00:14:18.934Z,84.2
2016-05-02T00:14:28.780Z,83.6
2016-05-02T00:14:38.936Z,83.8
2016-05-02T00:14:48.952Z,83.7
2016-05-02T00:14:58.952Z,83.9
2016-05-02T00:15:08.952Z,84
2016-05-02T00:15:18.936Z,84
2016-05-02T00:15:28.940Z,83.6
2016-05-02T00:15:38.799Z,83.7
2016-05-02T00:15:48.799Z,83.8
2016-05-02T00:15:58.956Z,84
2016-05-02T00:16:08.956Z,84.1
2016-05-02T00:16:18.956Z,84.1
2016-05-02T00:16:28.959Z,83.9
2016-05-02T00:16:38.974Z,83.9
2016-05-02T00:16:48.818Z,84
2016-05-02T00:16:58.974Z,84
2016-05-02T00:17:08.818Z,83.8
2016-05-02T00:17:18.818Z,83.9
2016-05-02T00:17:28.976Z,83.7
2016-05-02T00:17:38.976Z,83.9
2016-05-02T00:17:48.976Z,83.9
2016-05-02T00:17:58.992Z,83.9
2016-05-02T00:18:08.976Z,83.8
2016-05-02T00:18:18.976Z,83.9
2016-05-02T00:18:28.839Z,83.9
2016-05-02T00:18:38.839Z,83.6
2016-05-02T00:18:48.995Z,83.8
2016-05-02T00:18:58.995Z,83.7
2016-05-02T00:19:08.995Z,83.7
2016-05-02T00:19:19.011Z,83.7
2016-05-02T00:19:28.997Z,83.9
2016-05-02T00:19:38.997Z,83.8
2016-05-02T00:19:48.997Z,83.9
2016-05-02T00:19:58.841Z,83.7
2016-05-02T00:20:08.856Z,83.9
2016-05-02T00:20:19.013Z,83.9
2016-05-02T00:20:29.016Z,83.6
2016-05-02T00:20:39.016Z,83.6
2016-05-02T00:20:49.016Z,83.5
2016-05-02T00:20:59.953Z,83.9
2016-05-02T00:21:09.141Z,83.8
2016-05-02T00:21:19.234Z,83.9
2016-05-02T00:21:29.033Z,83.8
2016-05-02T00:21:38.861Z,83.6
2016-05-02T00:21:49.033Z,83.5
2016-05-02T00:21:59.033Z,83.8
2016-05-02T00:22:09.033Z,83.6
2016-05-02T00:22:19.033Z,83.8
2016-05-02T00:22:29.037Z,83.9
2016-05-02T00:22:39.037Z,83.8
2016-05-02T00:22:49.037Z,83.9
2016-05-02T00:22:59.053Z,83.9
2016-05-02T00:23:08.897Z,83.8
2016-05-02T00:23:19.037Z,83.7
2016-05-02T00:23:28.742Z,83.5
2016-05-02T00:23:39.039Z,83.4
2016-05-02T00:23:49.055Z,83.6
2016-05-02T00:23:58.899Z,83.8
2016-05-02T00:24:08.899Z,83.9
2016-05-02T00:24:19.070Z,83.9
2016-05-02T00:24:29.058Z,83.9
2016-05-02T00:24:38.917Z,83.6
2016-05-02T00:24:49.073Z,83.6
2016-05-02T00:24:58.917Z,83.5
2016-05-02T00:25:09.073Z,83.7
2016-05-02T00:25:18.917Z,83.9
2016-05-02T00:25:28.920Z,84
2016-05-02T00:25:38.920Z,83.5
2016-05-02T00:25:49.076Z,83.8
2016-05-02T00:25:59.076Z,83.8
2016-05-02T00:26:08.936Z,83.6
2016-05-02T00:26:19.092Z,84
2016-05-02T00:26:28.938Z,83.9
2016-05-02T00:26:39.094Z,83.7
2016-05-02T00:26:49.078Z,83.4
2016-05-02T00:26:58.953Z,83.4
2016-05-02T00:27:09.078Z,83.6
2016-05-02T00:27:18.938Z,83.8
2016-05-02T00:27:29.096Z,83.9
2016-05-02T00:27:39.112Z,83.9
2016-05-02T00:27:49.096Z,83.8
2016-05-02T00:27:59.112Z,83.6
2016-05-02T00:28:09.112Z,83.6
2016-05-02T00:28:19.112Z,83.7
2016-05-02T00:28:28.958Z,83.7
2016-05-02T00:28:38.958Z,83.5
2016-05-02T00:28:48.958Z,83.6
2016-05-02T00:28:58.958Z,83.4
2016-05-02T00:29:08.990Z,83.7
2016-05-02T00:29:19.115Z,83.7
2016-05-02T00:29:29.134Z,84
2016-05-02T00:29:39.119Z,83.6
2016-05-02T00:29:49.134Z,83.8
2016-05-02T00:29:59.119Z,84.3
2016-05-02T00:30:09.119Z,84.1
2016-05-02T00:30:18.978Z,84
2016-05-02T00:30:29.136Z,84
2016-05-02T00:30:39.136Z,83.9
2016-05-02T00:30:49.136Z,84.3
2016-05-02T00:30:59.136Z,84.4
2016-05-02T00:31:09.152Z,84.5
2016-05-02T00:31:19.152Z,84.6
2016-05-02T00:31:29.155Z,84.3
2016-05-02T00:31:39.139Z,84.1
2016-05-02T00:31:49.139Z,84.4
2016-05-02T00:31:59.155Z,84.5
2016-05-02T00:32:09.155Z,84.4
2016-05-02T00:32:18.999Z,84.4
2016-05-02T00:32:29.157Z,84.3
2016-05-02T00:32:39.001Z,84.2
2016-05-02T00:32:49.157Z,83.7
2016-05-02T00:32:59.157Z,83.9
2016-05-02T00:33:09.157Z,83.9
2016-05-02T00:33:19.173Z,84.2
2016-05-02T00:33:29.160Z,84.3
2016-05-02T00:33:39.176Z,84.1
2016-05-02T00:33:49.191Z,84
2016-05-02T00:33:59.035Z,84.2
2016-05-02T00:34:09.176Z,83.9
2016-05-02T00:34:19.176Z,84
2016-05-02T00:34:29.178Z,84
2016-05-02T00:34:39.178Z,83.9
2016-05-02T00:34:49.178Z,83.6
2016-05-02T00:34:59.193Z,83.6
2016-05-02T00:35:09.053Z,83.5
2016-05-02T00:35:19.178Z,83.9
2016-05-02T00:35:29.196Z,83.8
2016-05-02T00:35:39.196Z,83.9
2016-05-02T00:35:50.165Z,83.6
2016-05-02T00:35:59.196Z,84
2016-05-02T00:36:09.540Z,84.1
2016-05-02T00:36:19.212Z,84.1
2016-05-02T00:36:29.355Z,83.8
2016-05-02T00:36:39.215Z,83.8
2016-05-02T00:36:49.215Z,83.9
2016-05-02T00:36:59.215Z,83.9
2016-05-02T00:37:09.215Z,84
2016-05-02T00:37:19.215Z,83.8
2016-05-02T00:37:29.218Z,84.1
2016-05-02T00:37:39.062Z,83.9
2016-05-02T00:37:49.077Z,83.9
2016-05-02T00:37:59.218Z,83.7
2016-05-02T00:38:09.233Z,83.7
2016-05-02T00:38:19.077Z,84.3
2016-05-02T00:38:29.235Z,84.5
2016-05-02T00:38:39.235Z,84.3
2016-05-02T00:38:49.220Z,84.2
2016-05-02T00:38:59.235Z,84
2016-05-02T00:39:09.251Z,84.2
2016-05-02T00:39:19.235Z,84.4
2016-05-02T00:39:29.238Z,84.4
2016-05-02T00:39:39.254Z,84.3
2016-05-02T00:39:49.254Z,84
2016-05-02T00:39:59.254Z,84.3
2016-05-02T00:40:09.113Z,83.9
2016-05-02T00:40:19.254Z,84.1
2016-05-02T00:40:29.256Z,84.4
2016-05-02T00:40:39.100Z,84.3
2016-05-02T00:40:49.256Z,84.9
2016-05-02T00:40:59.256Z,84.7
2016-05-02T00:41:09.256Z,84.7
2016-05-02T00:41:19.240Z,84.7
2016-05-02T00:41:29.260Z,84.6
2016-05-02T00:41:39.260Z,84.6
2016-05-02T00:41:49.276Z,84.8
2016-05-02T00:41:59.276Z,84.7
2016-05-02T00:42:09.276Z,84.4
2016-05-02T00:42:19.119Z,84.2
2016-05-02T00:42:29.137Z,84.4
2016-05-02T00:42:39.278Z,84.6
2016-05-02T00:42:49.293Z,84.7
2016-05-02T00:42:59.278Z,84.6
2016-05-02T00:43:09.278Z,84.5
2016-05-02T00:43:19.293Z,84.6
2016-05-02T00:43:29.296Z,84.7
2016-05-02T00:43:39.156Z,84.6
2016-05-02T00:43:49.296Z,84.8
2016-05-02T00:43:59.281Z,85.3
2016-05-02T00:44:09.140Z,85.1
2016-05-02T00:44:19.296Z,85.2
2016-05-02T00:44:29.298Z,85
2016-05-02T00:44:39.142Z,85
2016-05-02T00:44:49.314Z,85.3
2016-05-02T00:44:59.314Z,85
2016-05-02T00:45:09.298Z,85.2
2016-05-02T00:45:19.314Z,85.3
2016-05-02T00:45:29.161Z,85.1
2016-05-02T00:45:39.301Z,85
2016-05-02T00:45:49.301Z,85.2
2016-05-02T00:45:59.333Z,84.9
2016-05-02T00:46:09.317Z,85.3
2016-05-02T00:46:19.333Z,85
2016-05-02T00:46:29.336Z,84.9
2016-05-02T00:46:39.336Z,85.4
2016-05-02T00:46:49.320Z,85.4
2016-05-02T00:46:59.320Z,85.4
2016-05-02T00:47:09.351Z,85.4
2016-05-02T00:47:19.336Z,85.4
2016-05-02T00:47:29.338Z,85.4
2016-05-02T00:47:39.181Z,85.4
2016-05-02T00:47:49.369Z,85.5
2016-05-02T00:47:59.338Z,85.4
2016-05-02T00:48:09.338Z,85.3
2016-05-02T00:48:19.338Z,85.5
2016-05-02T00:48:29.341Z,85.6
2016-05-02T00:48:39.356Z,85.3
2016-05-02T00:48:49.356Z,85
2016-05-02T00:48:59.356Z,85
2016-05-02T00:49:09.200Z,85
2016-05-02T00:49:19.356Z,85.3
2016-05-02T00:49:29.359Z,85
2016-05-02T00:49:39.359Z,85.1
2016-05-02T00:49:49.359Z,85.1
2016-05-02T00:49:59.359Z,85.1
2016-05-02T00:50:09.359Z,85
2016-05-02T00:50:19.375Z,85.2
2016-05-02T00:50:29.378Z,85.6
2016-05-02T00:50:39.362Z,85.8
2016-05-02T00:50:49.081Z,85.7
2016-05-02T00:51:00.472Z,85.9
2016-05-02T00:51:10.081Z,85.8
2016-05-02T00:51:19.722Z,85.7
2016-05-02T00:51:29.427Z,85.7
2016-05-02T00:51:39.364Z,85.7
2016-05-02T00:51:49.380Z,85.9
2016-05-02T00:51:59.239Z,85.9
2016-05-02T00:52:09.380Z,85.9
2016-05-02T00:52:19.395Z,85.7
2016-05-02T00:52:29.398Z,85.9
2016-05-02T00:52:39.383Z,85.7
2016-05-02T00:52:49.398Z,85.8
2016-05-02T00:52:59.398Z,85.7
2016-05-02T00:53:09.398Z,85.8
2016-05-02T00:53:19.414Z,85.9
2016-05-02T00:53:29.245Z,85.7
2016-05-02T00:53:39.401Z,85.7
2016-05-02T00:53:49.401Z,85.8
2016-05-02T00:53:59.401Z,85.8
2016-05-02T00:54:09.417Z,85.9
2016-05-02T00:54:19.417Z,85.9
2016-05-02T00:54:29.419Z,85.9
2016-05-02T00:54:39.419Z,85.9
2016-05-02T00:54:49.419Z,85.8
2016-05-02T00:54:59.263Z,85.9
2016-05-02T00:55:09.263Z,85.9
2016-05-02T00:55:19.435Z,85.8
2016-05-02T00:55:29.422Z,85.8
2016-05-02T00:55:39.422Z,85.9
2016-05-02T00:55:49.422Z,85.8
2016-05-02T00:55:59.422Z,85.8
2016-05-02T00:56:09.438Z,86
2016-05-02T00:56:19.281Z,85.7
2016-05-02T00:56:29.284Z,85.9
2016-05-02T00:56:39.441Z,85.9
2016-05-02T00:56:49.284Z,85.7
2016-05-02T00:56:59.284Z,85.7
2016-05-02T00:57:09.300Z,85.6
2016-05-02T00:57:19.456Z,85.6
2016-05-02T00:57:29.302Z,85.3
2016-05-02T00:57:39.443Z,85.6
2016-05-02T00:57:49.458Z,85.4
2016-05-02T00:57:59.443Z,85.7
2016-05-02T00:58:09.302Z,85.6
2016-05-02T00:58:19.458Z,85.7
2016-05-02T00:58:29.461Z,85.7
2016-05-02T00:58:39.321Z,85.8
2016-05-02T00:58:49.461Z,85.6
2016-05-02T00:58:59.461Z,85.7
2016-05-02T00:59:09.461Z,85.2
2016-05-02T00:59:19.321Z,85.5
2016-05-02T00:59:29.324Z,85.6
2016-05-02T00:59:39.480Z,85.5
2016-05-02T00:59:49.480Z,85.1
2016-05-02T00:59:59.324Z,85.1
2016-05-02T01:00:09.324Z,85.3
2016-05-02T01:00:19.480Z,85.1
2016-05-02T01:00:29.482Z,85
2016-05-02T01:00:39.341Z,85.3
2016-05-02T01:00:49.341Z,85.4
2016-05-02T01:00:59.326Z,85.4
2016-05-02T01:01:09.341Z,85
2016-05-02T01:01:19.513Z,85.3
2016-05-02T01:01:29.501Z,85.3
2016-05-02T01:01:39.501Z,85.2
2016-05-02T01:01:49.501Z,85.1
2016-05-02T01:01:59.344Z,85.3
2016-05-02T01:02:09.501Z,85.3
2016-05-02T01:02:19.516Z,85.2
2016-05-02T01:02:29.513Z,85
2016-05-02T01:02:39.372Z,85.3
2016-05-02T01:02:49.528Z,84.7
2016-05-02T01:02:59.528Z,85.3
2016-05-02T01:03:09.528Z,85.5
2016-05-02T01:03:19.372Z,85.3
2016-05-02T01:03:29.575Z,85.4
2016-05-02T01:03:39.575Z,85.3
2016-05-02T01:03:49.419Z,85.4
2016-05-02T01:03:59.591Z,85.5
2016-05-02T01:04:09.575Z,85.3
2016-05-02T01:04:19.591Z,85.3
2016-05-02T01:04:29.653Z,85.2
2016-05-02T01:04:39.622Z,85.2
2016-05-02T01:04:49.638Z,85
2016-05-02T01:04:59.638Z,85
2016-05-02T01:05:09.638Z,85.2
2016-05-02T01:05:19.497Z,85.2
2016-05-02T01:05:29.529Z,85.6
2016-05-02T01:05:39.685Z,85.4
2016-05-02T01:05:50.154Z,85.7
2016-05-02T01:05:59.685Z,85.7
2016-05-02T01:06:10.950Z,85.7
2016-05-02T01:06:19.560Z,85.9
2016-05-02T01:06:30.028Z,85.9
2016-05-02T01:06:39.590Z,85.8
2016-05-02T01:06:49.746Z,85.9
2016-05-02T01:06:59.590Z,85.9
2016-05-02T01:07:09.606Z,85.7
2016-05-02T01:07:19.621Z,85.8
2016-05-02T01:07:29.803Z,85.7
2016-05-02T01:07:39.631Z,85.7
2016-05-02T01:07:49.787Z,85.9
2016-05-02T01:07:59.803Z,85.7
2016-05-02T01:08:09.647Z,85.6
2016-05-02T01:08:19.803Z,85.7
2016-05-02T01:08:29.822Z,85.7
2016-05-02T01:08:39.822Z,85.5
2016-05-02T01:08:49.822Z,85.6
2016-05-02T01:08:59.666Z,85.5
2016-05-02T01:09:09.838Z,85.8
2016-05-02T01:09:19.822Z,85.6
2016-05-02T01:09:29.841Z,86.1
2016-05-02T01:09:39.857Z,86.1
2016-05-02T01:09:49.857Z,85.9
2016-05-02T01:09:59.857Z,86
2016-05-02T01:10:09.857Z,86
2016-05-02T01:10:19.841Z,85.9
2016-05-02T01:10:29.719Z,86.4
2016-05-02T01:10:39.860Z,86.3
2016-05-02T01:10:49.719Z,86.1
2016-05-02T01:10:59.876Z,86.4
2016-05-02T01:11:09.891Z,86.5
2016-05-02T01:11:19.891Z,86.2
2016-05-02T01:11:29.895Z,86.4
2016-05-02T01:11:39.895Z,86.7
2016-05-02T01:11:49.895Z,86.3
2016-05-02T01:11:59.754Z,86.6
2016-05-02T01:12:09.910Z,86.2
2016-05-02T01:12:19.910Z,86.4
2016-05-02T01:12:29.927Z,86.4
2016-05-02T01:12:40.037Z,86.7
2016-05-02T01:12:49.787Z,86.8
2016-05-02T01:12:59.927Z,86.1
2016-05-02T01:13:09.787Z,86.1
2016-05-02T01:13:19.943Z,86.8
2016-05-02T01:13:29.795Z,86.9
2016-05-02T01:13:39.935Z,86.1
2016-05-02T01:13:49.951Z,86.8
2016-05-02T01:13:59.795Z,86.9
2016-05-02T01:14:09.951Z,86.7
2016-05-02T01:14:19.951Z,86.7
2016-05-02T01:14:29.959Z,86.7
2016-05-02T01:14:39.959Z,86.8
2016-05-02T01:14:49.959Z,86.7
2016-05-02T01:14:59.959Z,86.8
2016-05-02T01:15:09.959Z,86.8
2016-05-02T01:15:19.818Z,86.5
2016-05-02T01:15:29.827Z,86.7
2016-05-02T01:15:39.984Z,86.7
2016-05-02T01:15:49.827Z,86.5
2016-05-02T01:15:59.984Z,86.7
2016-05-02T01:16:09.984Z,86.8
2016-05-02T01:16:19.843Z,86.5
2016-05-02T01:16:29.993Z,86.8
2016-05-02T01:16:39.836Z,86.8
2016-05-02T01:16:49.993Z,86.8
2016-05-02T01:17:00.008Z,86.8
2016-05-02T01:17:10.008Z,86.7
2016-05-02T01:17:20.008Z,86.8
2016-05-02T01:17:30.015Z,86.5
2016-05-02T01:17:39.859Z,86.8
2016-05-02T01:17:49.859Z,86.7
2016-05-02T01:18:00.015Z,86.9
2016-05-02T01:18:10.015Z,87
2016-05-02T01:18:20.015Z,87
2016-05-02T01:18:30.020Z,87.1
2016-05-02T01:18:40.036Z,87
2016-05-02T01:18:50.020Z,86.7
2016-05-02T01:18:59.880Z,86.8
2016-05-02T01:19:09.880Z,86.8
2016-05-02T01:19:20.036Z,86.8
2016-05-02T01:19:29.884Z,86.8
2016-05-02T01:19:40.040Z,86.8
2016-05-02T01:19:50.040Z,86.8
2016-05-02T01:20:00.055Z,86.7
2016-05-02T01:20:10.040Z,87
2016-05-02T01:20:20.040Z,86.8
2016-05-02T01:20:30.045Z,87
2016-05-02T01:20:40.045Z,87
2016-05-02T01:20:49.920Z,86.8
2016-05-02T01:21:00.560Z,86.8
2016-05-02T01:21:09.935Z,86.8
2016-05-02T01:21:20.060Z,86.9
2016-05-02T01:21:30.064Z,86.8
2016-05-02T01:21:40.064Z,86.8
2016-05-02T01:21:50.064Z,86.8
2016-05-02T01:21:59.908Z,86.8
2016-05-02T01:22:10.064Z,86.8
2016-05-02T01:22:20.064Z,86.8
2016-05-02T01:22:30.069Z,87.1
2016-05-02T01:22:40.069Z,86.8
2016-05-02T01:22:50.085Z,87.3
2016-05-02T01:23:00.085Z,87.1
2016-05-02T01:23:10.085Z,87.1
2016-05-02T01:23:20.085Z,87.3
2016-05-02T01:23:30.072Z,86.9
2016-05-02T01:23:40.088Z,87.4
2016-05-02T01:23:49.932Z,86.8
2016-05-02T01:24:00.104Z,86.8
2016-05-02T01:24:10.088Z,86.8
2016-05-02T01:24:20.088Z,86.8
2016-05-02T01:24:30.123Z,86.8
2016-05-02T01:24:40.108Z,86.9
2016-05-02T01:24:50.108Z,87
2016-05-02T01:24:59.951Z,87
2016-05-02T01:25:10.108Z,87
2016-05-02T01:25:20.092Z,86.6
2016-05-02T01:25:29.955Z,86.9
2016-05-02T01:25:39.971Z,86.5
2016-05-02T01:25:49.955Z,86.5
2016-05-02T01:26:00.143Z,86.8
2016-05-02T01:26:10.127Z,86.6
2016-05-02T01:26:20.112Z,86.9
2016-05-02T01:26:30.114Z,86.9
2016-05-02T01:26:40.129Z,87
2016-05-02T01:26:49.989Z,86.8
2016-05-02T01:27:00.129Z,86.7
2016-05-02T01:27:10.129Z,86.6
2016-05-02T01:27:20.145Z,86.7
2016-05-02T01:27:29.993Z,86.6
2016-05-02T01:27:40.133Z,86.8
2016-05-02T01:27:50.133Z,86.6
2016-05-02T01:27:59.993Z,86.7
2016-05-02T01:28:10.149Z,86.6
2016-05-02T01:28:20.149Z,86.9
2016-05-02T01:28:30.152Z,86.9
2016-05-02T01:28:40.152Z,87.1
2016-05-02T01:28:50.152Z,87
2016-05-02T01:29:00.168Z,86.9
2016-05-02T01:29:10.152Z,86.8
2016-05-02T01:29:20.152Z,86.9
2016-05-02T01:29:30.171Z,86.9
2016-05-02T01:29:40.014Z,86.6
2016-05-02T01:29:50.171Z,86.7
2016-05-02T01:30:00.171Z,86.8
2016-05-02T01:30:10.186Z,86.8
2016-05-02T01:30:20.171Z,86.8
2016-05-02T01:30:30.158Z,86.8
2016-05-02T01:30:40.174Z,86.8
2016-05-02T01:30:50.189Z,86.8
2016-05-02T01:31:00.049Z,86.8
2016-05-02T01:31:10.205Z,86.8
2016-05-02T01:31:20.174Z,86.5
2016-05-02T01:31:30.178Z,86.7
2016-05-02T01:31:40.178Z,86.9
2016-05-02T01:31:50.193Z,87.1
2016-05-02T01:32:00.178Z,86.8
2016-05-02T01:32:10.193Z,86.8
2016-05-02T01:32:20.318Z,86.8
2016-05-02T01:32:30.258Z,86.8
2016-05-02T01:32:40.055Z,87.2
2016-05-02T01:32:50.055Z,87.3
2016-05-02T01:33:00.039Z,87.1
2016-05-02T01:33:10.195Z,87.3
2016-05-02T01:33:20.195Z,86.9
2016-05-02T01:33:30.354Z,87
2016-05-02T01:33:40.214Z,87.1
2016-05-02T01:33:50.214Z,87
2016-05-02T01:34:00.058Z,87
2016-05-02T01:34:10.058Z,87.3
2016-05-02T01:34:20.058Z,86.8
2016-05-02T01:34:30.217Z,87.2
2016-05-02T01:34:40.061Z,87.3
2016-05-02T01:34:50.232Z,87.1
2016-05-02T01:35:00.076Z,87.4
2016-05-02T01:35:10.076Z,87.4
2016-05-02T01:35:20.232Z,86.9
2016-05-02T01:35:30.219Z,88.1
2016-05-02T01:35:40.234Z,87.8
2016-05-02T01:35:51.000Z,87.5
2016-05-02T01:36:00.109Z,87.8
2016-05-02T01:36:10.969Z,87.9
2016-05-02T01:36:21.172Z,87.6
2016-05-02T01:36:30.753Z,87.7
2016-05-02T01:36:40.237Z,87.6
2016-05-02T01:36:50.237Z,87.8
2016-05-02T01:37:00.081Z,87.9
2016-05-02T01:37:10.253Z,87.6
2016-05-02T01:37:20.097Z,87.7
2016-05-02T01:37:30.256Z,87.8
2016-05-02T01:37:40.256Z,87.5
2016-05-02T01:37:50.100Z,87.6
2016-05-02T01:38:00.100Z,87.5
2016-05-02T01:38:10.272Z,87.7
2016-05-02T01:38:20.256Z,87.7
2016-05-02T01:38:30.103Z,87.6
2016-05-02T01:38:40.275Z,87.5
2016-05-02T01:38:50.259Z,88.3
2016-05-02T01:39:00.118Z,87.9
2016-05-02T01:39:09.993Z,88.1
2016-05-02T01:39:20.259Z,87.9
2016-05-02T01:39:30.277Z,87.9
2016-05-02T01:39:40.277Z,87.8
2016-05-02T01:39:50.277Z,88
2016-05-02T01:40:00.277Z,87.9
2016-05-02T01:40:10.277Z,88.1
2016-05-02T01:40:20.277Z,88.1
2016-05-02T01:40:30.280Z,87.8
2016-05-02T01:40:40.280Z,88
2016-05-02T01:40:50.280Z,88
2016-05-02T01:41:00.295Z,87.9
2016-05-02T01:41:10.295Z,88
2016-05-02T01:41:20.295Z,88
2016-05-02T01:41:30.297Z,87.9
2016-05-02T01:41:40.282Z,87.8
2016-05-02T01:41:50.297Z,88.1
2016-05-02T01:42:00.141Z,87.9
2016-05-02T01:42:10.297Z,87.8
2016-05-02T01:42:20.297Z,87.6
2016-05-02T01:42:30.160Z,87.5
2016-05-02T01:42:40.300Z,87.7
2016-05-02T01:42:50.300Z,87.7
2016-05-02T01:43:00.160Z,87.7
2016-05-02T01:43:10.300Z,87.8
2016-05-02T01:43:20.160Z,87.5
2016-05-02T01:43:30.303Z,87.5
2016-05-02T01:43:40.163Z,88.1
2016-05-02T01:43:50.319Z,87.8
2016-05-02T01:44:00.319Z,88
2016-05-02T01:44:10.319Z,87.9
2016-05-02T01:44:20.319Z,87.8
2016-05-02T01:44:30.338Z,87.7
2016-05-02T01:44:40.181Z,87.9
2016-05-02T01:44:50.322Z,87.7
2016-05-02T01:45:00.322Z,87.7
2016-05-02T01:45:10.181Z,88.5
2016-05-02T01:45:20.181Z,87.7
2016-05-02T01:45:30.355Z,87.8
2016-05-02T01:45:40.340Z,87.5
2016-05-02T01:45:50.340Z,88
2016-05-02T01:46:00.199Z,87.9
2016-05-02T01:46:10.340Z,88.1
2016-05-02T01:46:20.340Z,87.9
2016-05-02T01:46:30.358Z,87.9
2016-05-02T01:46:40.343Z,88.1
2016-05-02T01:46:50.374Z,88.1
2016-05-02T01:47:00.358Z,87.9
2016-05-02T01:47:10.358Z,87.8
2016-05-02T01:47:20.358Z,87.8
2016-05-02T01:47:30.361Z,87.8
2016-05-02T01:47:40.361Z,87.9
2016-05-02T01:47:50.361Z,88
2016-05-02T01:48:00.205Z,87.5
2016-05-02T01:48:10.361Z,87.5
2016-05-02T01:48:20.361Z,87.9
2016-05-02T01:48:30.379Z,87.7
2016-05-02T01:48:40.223Z,87.9
2016-05-02T01:48:50.410Z,88
2016-05-02T01:49:00.379Z,88
2016-05-02T01:49:10.379Z,88
2016-05-02T01:49:20.223Z,87.9
2016-05-02T01:49:30.382Z,87.9
2016-05-02T01:49:40.226Z,87.9
2016-05-02T01:49:50.226Z,87.9
2016-05-02T01:50:00.382Z,87.5
2016-05-02T01:50:10.397Z,87.6
2016-05-02T01:50:20.241Z,87.6
2016-05-02T01:50:30.385Z,87.7
2016-05-02T01:50:40.400Z,88.3
2016-05-02T01:50:51.275Z,88.5
2016-05-02T01:51:00.900Z,88.5
2016-05-02T01:51:10.416Z,88.5
2016-05-02T01:51:21.838Z,88.5
2016-05-02T01:51:31.591Z,88.2
2016-05-02T01:51:40.263Z,88.2
2016-05-02T01:51:50.263Z,88.2
2016-05-02T01:52:00.263Z,88.2
2016-05-02T01:52:10.403Z,88.2
2016-05-02T01:52:20.403Z,88.2
2016-05-02T01:52:30.421Z,88.2
2016-05-02T01:52:40.421Z,88.3
2016-05-02T01:52:50.437Z,88.2
2016-05-02T01:53:00.437Z,88.3
2016-05-02T01:53:10.421Z,88.3
2016-05-02T01:53:20.421Z,88.2
2016-05-02T01:53:30.424Z,88
2016-05-02T01:53:40.424Z,88.3
2016-05-02T01:53:50.283Z,88.4
2016-05-02T01:54:00.424Z,88.3
2016-05-02T01:54:10.440Z,87.7
2016-05-02T01:54:20.440Z,87.9
2016-05-02T01:54:30.285Z,87.9
2016-05-02T01:54:40.442Z,87.6
2016-05-02T01:54:50.442Z,87.7
2016-05-02T01:55:00.442Z,87.8
2016-05-02T01:55:10.457Z,88.1
2016-05-02T01:55:20.442Z,87.6
2016-05-02T01:55:30.445Z,87.5
2016-05-02T01:55:40.445Z,87.6
2016-05-02T01:55:50.460Z,87.8
2016-05-02T01:56:00.460Z,87.6
2016-05-02T01:56:10.445Z,87.5
2016-05-02T01:56:20.445Z,87.6
2016-05-02T01:56:30.463Z,87.6
2016-05-02T01:56:40.448Z,87.5
2016-05-02T01:56:50.307Z,87.6
2016-05-02T01:57:00.307Z,87.9
2016-05-02T01:57:10.463Z,87.8
2016-05-02T01:57:20.323Z,87.9
2016-05-02T01:57:30.466Z,87.6
2016-05-02T01:57:40.482Z,87.5
2016-05-02T01:57:50.466Z,87.7
2016-05-02T01:58:00.326Z,87.7
2016-05-02T01:58:10.466Z,87.7
2016-05-02T01:58:20.482Z,87.5
2016-05-02T01:58:30.328Z,87.5
2016-05-02T01:58:40.500Z,87.5
2016-05-02T01:58:50.484Z,87.6
2016-05-02T01:59:00.484Z,88.1
2016-05-02T01:59:10.484Z,88.2
2016-05-02T01:59:20.500Z,88.3
2016-05-02T01:59:30.487Z,88.3
2016-05-02T01:59:40.346Z,87.8
2016-05-02T01:59:50.503Z,88.2
2016-05-02T02:00:00.346Z,87.7
2016-05-02T02:00:10.503Z,87.8
2016-05-02T02:00:20.503Z,87.7
2016-05-02T02:00:30.349Z,87.5
2016-05-02T02:00:40.506Z,87.5
2016-05-02T02:00:50.349Z,87.6
2016-05-02T02:01:00.349Z,88.3
2016-05-02T02:01:10.506Z,87.9
2016-05-02T02:01:20.506Z,88.1
2016-05-02T02:01:30.523Z,87.9
2016-05-02T02:01:40.523Z,88
2016-05-02T02:01:50.523Z,87.8
2016-05-02T02:02:00.508Z,87.8
2016-05-02T02:02:10.367Z,87.9
2016-05-02T02:02:20.523Z,87.9
2016-05-02T02:02:30.526Z,87.9
2016-05-02T02:02:40.542Z,87.8
2016-05-02T02:02:50.526Z,88.5
2016-05-02T02:03:00.370Z,88.2
2016-05-02T02:03:10.386Z,88.5
2016-05-02T02:03:20.386Z,87.9
2016-05-02T02:03:30.373Z,87.8
2016-05-02T02:03:40.373Z,87.8
2016-05-02T02:03:50.529Z,87.9
2016-05-02T02:04:00.545Z,88.1
2016-05-02T02:04:10.560Z,87.9
2016-05-02T02:04:20.545Z,87.8
2016-05-02T02:04:30.547Z,87.8
2016-05-02T02:04:40.547Z,88.1
2016-05-02T02:04:50.547Z,87.8
2016-05-02T02:05:00.547Z,87.8
2016-05-02T02:05:10.547Z,88
2016-05-02T02:05:20.406Z,88
2016-05-02T02:05:30.565Z,87.7
2016-05-02T02:05:40.550Z,88
2016-05-02T02:05:51.565Z,87.9
2016-05-02T02:06:00.612Z,87.9
2016-05-02T02:06:10.565Z,87.7
2016-05-02T02:06:21.050Z,87.9
2016-05-02T02:06:32.053Z,87.9
2016-05-02T02:06:40.568Z,87.8
2016-05-02T02:06:50.568Z,88.1
2016-05-02T02:07:00.584Z,87.9
2016-05-02T02:07:10.584Z,87.8
2016-05-02T02:07:20.428Z,87.9
2016-05-02T02:07:30.570Z,87.8
2016-05-02T02:07:40.570Z,87.9
2016-05-02T02:07:50.430Z,87.7
2016-05-02T02:08:00.430Z,87.5
2016-05-02T02:08:10.586Z,87.7
2016-05-02T02:08:20.586Z,87.7
2016-05-02T02:08:30.589Z,87.7
2016-05-02T02:08:40.589Z,87.5
2016-05-02T02:08:50.589Z,87.7
2016-05-02T02:09:00.433Z,87.7
2016-05-02T02:09:10.589Z,87.7
2016-05-02T02:09:20.448Z,87.8
2016-05-02T02:09:30.592Z,87.7
2016-05-02T02:09:40.608Z,87.8
2016-05-02T02:09:50.608Z,87.7
2016-05-02T02:10:00.608Z,87.8
2016-05-02T02:10:10.608Z,87.8
2016-05-02T02:10:20.608Z,87.9
2016-05-02T02:10:30.610Z,88
2016-05-02T02:10:40.453Z,87.8
2016-05-02T02:10:50.469Z,87.9
2016-05-02T02:11:00.313Z,87.7
2016-05-02T02:11:10.625Z,87.6
2016-05-02T02:11:20.610Z,87.6
2016-05-02T02:11:30.613Z,87.6
2016-05-02T02:11:40.488Z,87.6
2016-05-02T02:11:50.628Z,87.6
2016-05-02T02:12:00.628Z,87.7
2016-05-02T02:12:10.488Z,87.8
2016-05-02T02:12:20.628Z,87.9
2016-05-02T02:12:30.631Z,87.8
2016-05-02T02:12:40.631Z,87.9
2016-05-02T02:12:50.647Z,87.7
2016-05-02T02:13:00.491Z,87.8
2016-05-02T02:13:10.647Z,87.8
2016-05-02T02:13:20.491Z,87.8
2016-05-02T02:13:30.650Z,87.6
2016-05-02T02:13:40.494Z,87.9
2016-05-02T02:13:50.494Z,87.6
2016-05-02T02:14:00.650Z,87.7